EVRAEYVI

Guest
Details From EVRA - Riga Intl
To EYVI - Vilnius Intl
Flight Number -
Tags Generated
Created
Modified
Stats Distance 146 nm / 270 km
Max Altitude 0 ft / 0 m
Waypoints 2
Social Downloads 10
Likes 0
Share VATSIM

Download

Looking for another format? Having issues loading an existing format? Contact us
Advertisement - Login to hide

Notes

Generated

Route

EVRA EYVI

ID Type Via Altitude Latitude Longitude Leg Dist Tot Dist Heading (true) Name
O EVRA APT - 0 ft / 0 m 56.93507˚ 23.97308˚ - 0 nm - -
O EYVI APT - 0 ft / 0 m 54.62373˚ 25.27855˚ 145 nm 145 nm 162° / 163° -

Altitude Profile

Advertisement - Login to hide

EVRA

Details ICAO EVRA (RIX)
Name Riga Intl
Region Latvia
Timezone Europe/Riga (UTC+2.0)
Stats Elevation 34 ft / 10 m (AMSL)
Location 56.923662° 23.971193°
Runways 1
Magnetic Variation 7.655° E

METAR

EVRA 120020Z 14010KT 9999 OVC010 01/00 Q0997 R18/290195 NOSIG

Decode

TAF

TAF TAF EVRA 112000Z 1121/1221 13007KT 8000 BKN010 OVC020 TEMPO 1121/1202 BKN015 BECMG 1206/1208 19010KT TEMPO 1208/1210 18017G27KT 3000 -RA BR BKN005 BECMG 1210/1212 BKN020 TEMPO 1215/1221 20015G28KT

Decode

Departure Runways

ID Width Length Bearing (true) Bearing (mag) Surface Threshold Offset Overrun Length
18 148 ft / 45 m 8,358 ft / 2,548 m 185.15° 177.49° Asphalt 0 ft / 0 m 170 ft / 52 m
36 148 ft / 45 m 8,358 ft / 2,548 m 5.14° 357.48° Asphalt 0 ft / 0 m 170 ft / 52 m

EYVI

Details ICAO EYVI (VNO)
Name VILNIUS INTL
Region Lithuania
Timezone Europe/Vilnius (UTC+2.0)
Stats Elevation 646 ft / 197 m (AMSL)
Location 54.634166° 25.285796°
Runways 1
Magnetic Variation 7.469° E

METAR

EYVI 120020Z 15010KT 9999 BKN006 BKN120 01/M00 Q0998 R19/2///95 NOSIG

Decode

TAF

TAF TAF EYVI 111705Z 1118/1218 16010G20KT 6000 BKN005 TEMPO 1118/1124 3000 BR BKN003 PROB40 TEMPO 1118/1124 -FZDZ BECMG 1205/1207 BKN010 OVC030

Decode

Destination Runways

ID Width Length Bearing (true) Bearing (mag) Surface Threshold Offset Overrun Length
02 164 ft / 50 m 8,210 ft / 2,502 m 21.89° 14.42° Asphalt 0 ft / 0 m 151 ft / 46 m
20 164 ft / 50 m 8,210 ft / 2,502 m 201.91° 194.44° Asphalt 0 ft / 0 m 0 ft / 0 m

Approach Navaids

Runway Type Ident Frequency Range Bearing (true) Bearing (mag) Slope Elevation
02 Localiser IAV 110.50 MHz 18 nm / 33 km 21.88° 14.41° - 646 ft / 197 m (AMSL)
02 Glidescope IAV 110.50 MHz 10 nm / 19 km 21.90° 14.43° 2.67° 646 ft / 197 m (AMSL)
20 Localiser IBK 109.10 MHz 18 nm / 33 km 201.87° 194.40° - 646 ft / 197 m (AMSL)
20 Glidescope IBK 109.10 MHz 10 nm / 19 km 201.90° 194.43° 3.00° 646 ft / 197 m (AMSL)
20 DME IBK 109.10 MHz 18 nm / 33 km - - - 651 ft / 198 m (AMSL)

Popular Alternatives